Time;durP1;ratioP1;P1;durP2;ratioP2;P2;SDS_P1;SDS_P2;PMS_P1;PMS_P2;Temp;Humidity;BMP_temperature;BMP_pressure;BME280_temperature;BME280_humidity;BME280_pressure;Samples;Min_cycle;Max_cycle;Signal;HPM_P1;HPM_P2
2022/04/22 00:01:59;;;;;;;9.07;8.18;;;12.20;99.90;;;;;;5049537;28;20198;-80
2022/04/22 00:04:27;;;;;;;8.70;7.90;;;12.10;99.90;;;;;;5050929;28;20218;-78
2022/04/22 00:06:54;;;;;;;9.32;7.68;;;12.00;99.90;;;;;;5059573;28;20221;-78
2022/04/22 00:09:21;;;;;;;9.73;7.57;;;11.90;99.90;;;;;;5045729;28;20230;-78
2022/04/22 00:11:49;;;;;;;8.85;7.95;;;11.90;99.90;;;;;;5040606;28;20198;-78
2022/04/22 00:14:16;;;;;;;7.78;7.05;;;12.00;99.90;;;;;;5049875;28;20647;-78
2022/04/22 00:16:45;;;;;;;9.73;8.45;;;12.00;99.90;;;;;;5065474;28;20205;-79
2022/04/22 00:19:12;;;;;;;9.63;8.07;;;12.10;99.90;;;;;;5041683;28;20215;-78
2022/04/22 00:21:41;;;;;;;9.38;8.40;;;12.10;99.90;;;;;;5059546;28;20560;-78
2022/04/22 00:24:09;;;;;;;10.73;8.73;;;12.10;99.90;;;;;;5049093;28;20199;-80
2022/04/22 00:26:36;;;;;;;8.82;7.90;;;12.20;99.90;;;;;;5060626;28;20206;-78
2022/04/22 00:29:05;;;;;;;9.95;8.88;;;12.00;99.90;;;;;;5060231;28;20202;-78
2022/04/22 00:31:32;;;;;;;10.68;8.48;;;12.00;99.90;;;;;;5034798;28;20199;-78
2022/04/22 00:34:01;;;;;;;9.75;8.48;;;12.00;99.90;;;;;;5056676;28;20779;-77
2022/04/22 00:36:28;;;;;;;9.70;8.48;;;11.90;99.90;;;;;;5061766;28;20197;-78
2022/04/22 00:38:56;;;;;;;10.05;8.75;;;11.90;99.90;;;;;;5065853;28;20195;-78
2022/04/22 00:41:23;;;;;;;10.95;9.20;;;11.80;99.90;;;;;;5059209;28;20237;-78
2022/04/22 00:43:55;;;;;;;11.07;9.40;;;11.80;99.90;;;;;;5065362;28;20201;-78
2022/04/22 00:46:22;;;;;;;10.50;9.40;;;11.90;99.90;;;;;;5061423;28;20206;-78
2022/04/22 00:48:50;;;;;;;12.57;9.68;;;11.90;99.90;;;;;;5042025;28;20223;-78
2022/04/22 00:51:21;;;;;;;10.43;9.10;;;11.90;99.90;;;;;;5054534;28;20226;-78
2022/04/22 00:53:50;;;;;;;10.93;9.82;;;11.80;99.90;;;;;;5053044;28;20798;-78
2022/04/22 00:56:31;;;;;;;9.88;8.85;;;11.90;99.90;;;;;;5046119;28;20210;-78
2022/04/22 00:58:59;;;;;;;11.48;9.15;;;12.00;99.90;;;;;;5067603;28;20198;-79
2022/04/22 01:01:26;;;;;;;11.47;10.27;;;11.80;99.90;;;;;;5065669;28;20214;-80
2022/04/22 01:12:22;;;;;;;12.05;9.88;;;12.00;99.90;;;;;;4980496;28;20193;-78
2022/04/22 01:14:49;;;;;;;11.65;9.65;;;11.90;99.90;;;;;;5021998;28;20205;-78
2022/04/22 01:17:17;;;;;;;11.73;10.15;;;11.90;99.90;;;;;;5043183;28;20199;-78
2022/04/22 01:19:44;;;;;;;10.68;9.48;;;12.00;99.90;;;;;;5051380;28;20214;-78
2022/04/22 01:22:13;;;;;;;12.67;10.23;;;11.90;99.90;;;;;;5046499;28;20193;-78
2022/04/22 01:24:40;;;;;;;11.82;10.35;;;11.90;99.90;;;;;;5047488;28;20197;-78
2022/04/22 01:27:19;;;;;;;11.00;9.65;;;11.80;99.90;;;;;;5050191;28;20214;-78
2022/04/22 01:29:46;;;;;;;14.02;11.40;;;11.70;99.90;;;;;;5055751;28;20603;-78
2022/04/22 01:32:13;;;;;;;12.00;10.57;;;11.80;99.90;;;;;;5063848;28;20209;-78
2022/04/22 01:34:42;;;;;;;11.83;10.50;;;11.70;99.90;;;;;;5041578;28;20191;-79
2022/04/22 01:37:09;;;;;;;12.05;10.70;;;11.70;99.90;;;;;;5050954;28;20190;-79
2022/04/22 01:39:38;;;;;;;13.30;10.43;;;11.70;99.90;;;;;;5049462;28;20219;-79
2022/04/22 01:42:06;;;;;;;12.80;10.98;;;11.60;99.90;;;;;;5044148;28;20198;-79
2022/04/22 01:44:35;;;;;;;13.75;10.60;;;11.70;99.90;;;;;;5045325;28;20199;-78
2022/04/22 01:47:03;;;;;;;12.27;10.97;;;11.60;99.90;;;;;;5063453;28;20574;-79
2022/04/22 01:49:31;;;;;;;12.20;10.93;;;11.70;99.90;;;;;;5046259;28;20226;-78
2022/04/22 01:51:59;;;;;;;13.90;10.85;;;11.80;99.90;;;;;;5060529;28;20206;-79
2022/04/22 01:54:26;;;;;;;13.38;11.18;;;11.70;99.90;;;;;;5047705;28;20206;-77
2022/04/22 01:56:55;;;;;;;12.77;11.27;;;11.70;99.90;;;;;;5044933;28;20197;-78
2022/04/22 01:59:22;;;;;;;16.58;12.40;;;11.70;99.90;;;;;;5039835;28;20215;-78
2022/04/22 02:01:50;;;;;;;15.40;12.55;;;11.60;99.90;;;;;;5060199;28;20213;-79
2022/04/22 02:04:17;;;;;;;12.97;11.57;;;11.60;99.90;;;;;;5064928;28;20683;-78
2022/04/22 02:06:45;;;;;;;15.03;11.63;;;11.50;99.90;;;;;;5045456;28;20193;-79
2022/04/22 02:09:13;;;;;;;13.10;11.77;;;11.40;99.90;;;;;;5046153;28;20213;-78
2022/04/22 02:11:41;;;;;;;15.33;12.03;;;11.30;99.90;;;;;;5036980;28;20198;-78
2022/04/22 02:14:10;;;;;;;12.57;11.23;;;11.30;99.90;;;;;;5048164;28;20203;-78
2022/04/22 02:16:37;;;;;;;13.73;11.90;;;11.40;99.90;;;;;;5043091;28;20201;-78
2022/04/22 02:19:05;;;;;;;14.37;12.20;;;11.30;99.90;;;;;;5043496;28;20186;-78
2022/04/22 02:21:32;;;;;;;16.33;13.17;;;11.40;99.90;;;;;;5039849;28;20186;-79
2022/04/22 02:24:00;;;;;;;14.63;12.00;;;11.50;99.90;;;;;;5051297;28;20187;-78
2022/04/22 02:26:27;;;;;;;14.83;12.30;;;11.40;99.90;;;;;;5039136;28;20191;-78
2022/04/22 02:28:54;;;;;;;14.57;12.15;;;11.40;99.90;;;;;;5045520;28;20664;-78
2022/04/22 02:31:22;;;;;;;16.00;12.50;;;11.50;99.90;;;;;;5043332;28;20566;-80
2022/04/22 02:33:50;;;;;;;15.00;12.97;;;11.40;99.90;;;;;;5054039;28;20214;-78
2022/04/22 02:36:17;;;;;;;14.03;11.97;;;11.40;99.90;;;;;;5042275;28;20187;-79
2022/04/22 02:38:45;;;;;;;17.57;12.53;;;11.30;99.90;;;;;;5041138;28;20203;-78
2022/04/22 02:46:43;;;;;;;15.20;12.63;;;11.20;99.90;;;;;;5050130;28;20190;-78
2022/04/22 02:49:11;;;;;;;16.23;13.30;;;11.30;99.90;;;;;;5045662;28;20207;-78
2022/04/22 02:51:38;;;;;;;16.37;13.13;;;11.20;99.90;;;;;;5056982;28;20195;-78
2022/04/22 02:54:06;;;;;;;17.27;13.33;;;11.20;99.90;;;;;;5056046;28;20202;-78
2022/04/22 02:56:33;;;;;;;15.63;13.30;;;11.30;99.90;;;;;;5049224;28;20207;-80
2022/04/22 02:59:02;;;;;;;16.70;12.83;;;11.30;99.90;;;;;;5045114;28;20656;-78
2022/04/22 03:01:30;;;;;;;16.23;13.43;;;11.20;99.90;;;;;;5047634;28;20194;-78
2022/04/22 03:03:59;;;;;;;18.03;13.83;;;11.20;99.90;;;;;;5047722;28;20199;-79
2022/04/22 03:06:26;;;;;;;18.33;15.00;;;11.40;99.90;;;;;;5042886;28;20199;-78
2022/04/22 03:08:53;;;;;;;15.10;12.77;;;11.40;99.90;;;;;;5045408;28;20265;-79
2022/04/22 03:11:21;;;;;;;17.03;13.87;;;11.50;99.90;;;;;;5066055;28;20218;-78
2022/04/22 03:14:23;;;;;;;15.57;13.57;;;11.60;99.90;;;;;;5050027;28;20190;-78
2022/04/22 03:16:51;;;;;;;15.93;13.67;;;11.60;99.90;;;;;;5060770;28;20224;-78
2022/04/22 03:19:19;;;;;;;16.10;13.00;;;11.60;99.90;;;;;;5040530;28;20199;-78
2022/04/22 03:21:47;;;;;;;17.67;14.40;;;11.50;99.90;;;;;;5042883;28;20195;-79
2022/04/22 03:24:14;;;;;;;16.85;14.00;;;11.60;99.90;;;;;;5047564;28;20206;-78
2022/04/22 03:26:41;;;;;;;17.07;13.63;;;11.50;99.90;;;;;;5044024;28;20665;-78
2022/04/22 03:29:09;;;;;;;17.27;13.97;;;11.50;99.90;;;;;;5047487;28;20217;-79
2022/04/22 03:31:36;;;;;;;16.02;14.20;;;11.50;99.90;;;;;;5043888;28;20205;-79
2022/04/22 03:34:03;;;;;;;17.00;13.80;;;11.50;99.90;;;;;;5063383;28;20202;-78
2022/04/22 03:36:32;;;;;;;18.42;14.73;;;11.50;99.90;;;;;;5045914;28;20198;-78
2022/04/22 03:38:59;;;;;;;18.73;14.85;;;11.40;99.90;;;;;;5048557;28;20194;-78
2022/04/22 03:41:27;;;;;;;17.42;14.77;;;11.20;99.90;;;;;;5058762;28;20242;-78
2022/04/22 03:43:55;;;;;;;18.93;14.77;;;11.40;99.90;;;;;;5051714;28;20210;-78
2022/04/22 03:46:22;;;;;;;17.70;14.00;;;11.30;99.90;;;;;;5060152;28;20206;-78
2022/04/22 03:48:50;;;;;;;19.13;15.73;;;11.20;99.90;;;;;;5060279;28;20688;-78
2022/04/22 03:51:17;;;;;;;18.58;15.38;;;11.20;99.90;;;;;;5058150;28;20227;-78
2022/04/22 03:53:46;;;;;;;19.40;15.60;;;11.20;99.90;;;;;;5048107;28;20206;-79
2022/04/22 03:58:59;;;;;;;19.43;15.77;;;11.10;99.90;;;;;;5041993;28;20212;-79
2022/04/22 04:01:26;;;;;;;19.40;17.30;;;11.10;99.90;;;;;;5060640;28;20237;-78
2022/04/22 04:03:54;;;;;;;18.63;16.73;;;11.00;99.90;;;;;;5060676;28;20198;-79
2022/04/22 04:06:22;;;;;;;21.57;16.53;;;10.90;99.90;;;;;;5044667;28;20199;-79
2022/04/22 04:17:03;;;;;;;23.23;18.83;;;11.00;99.90;;;;;;5048070;28;20668;-79
2022/04/22 04:25:31;;;;;;;20.60;18.17;;;10.90;99.90;;;;;;5044698;28;20551;-78
2022/04/22 04:27:59;;;;;;;22.30;18.47;;;11.00;99.90;;;;;;5052315;28;20202;-78
2022/04/22 04:30:26;;;;;;;22.93;19.80;;;11.10;99.90;;;;;;5045328;28;20222;-78
2022/04/22 04:32:54;;;;;;;28.10;20.98;;;11.10;99.90;;;;;;5060974;28;20202;-77
2022/04/22 04:35:21;;;;;;;23.05;20.10;;;11.10;99.90;;;;;;5043356;28;20203;-77
2022/04/22 04:37:49;;;;;;;23.23;20.70;;;11.10;99.90;;;;;;5055158;28;20213;-77
2022/04/22 04:40:20;;;;;;;23.58;20.67;;;11.10;99.90;;;;;;5061727;28;20229;-77
2022/04/22 04:42:49;;;;;;;23.48;20.30;;;11.10;99.90;;;;;;5039753;28;20564;-77
2022/04/22 04:45:17;;;;;;;22.15;19.63;;;11.10;99.90;;;;;;5043762;28;20205;-77
2022/04/22 04:47:44;;;;;;;24.95;20.45;;;11.20;99.90;;;;;;5052223;28;20199;-76
2022/04/22 04:50:12;;;;;;;22.77;20.27;;;11.10;99.90;;;;;;5038416;28;20214;-76
2022/04/22 04:52:43;;;;;;;24.33;20.40;;;11.10;99.90;;;;;;5048085;28;20234;-78
2022/04/22 04:55:13;;;;;;;25.33;21.27;;;11.20;99.90;;;;;;5049127;28;20203;-76
2022/04/22 04:57:57;;;;;;;25.23;20.27;;;11.60;99.90;;;;;;5043505;28;20653;-76
2022/04/22 05:00:31;;;;;;;20.48;18.15;;;11.70;99.90;;;;;;5040953;28;20740;-77
2022/04/22 05:03:01;;;;;;;23.27;19.73;;;12.00;99.90;;;;;;5041417;28;20208;-77
2022/04/22 05:05:31;;;;;;;24.42;21.58;;;11.90;99.90;;;;;;5040824;28;20195;-78
2022/04/22 05:08:01;;;;;;;23.15;20.65;;;11.80;99.90;;;;;;5064767;28;20198;-77
2022/04/22 05:10:33;;;;;;;24.10;21.52;;;11.60;99.90;;;;;;5044565;28;20616;-77
2022/04/22 05:13:03;;;;;;;26.35;21.70;;;11.50;99.90;;;;;;5041470;28;20214;-77
2022/04/22 05:15:33;;;;;;;27.20;22.55;;;11.50;99.90;;;;;;5040946;28;20198;-77
2022/04/22 05:18:02;;;;;;;24.70;21.88;;;11.50;99.90;;;;;;5045245;28;20203;-76
2022/04/22 05:20:33;;;;;;;26.38;22.23;;;11.40;99.90;;;;;;5052594;28;20215;-76
2022/04/22 05:23:01;;;;;;;23.48;20.80;;;11.30;99.90;;;;;;5048707;28;20206;-77
2022/04/22 05:25:32;;;;;;;27.03;22.10;;;11.40;99.90;;;;;;5048178;28;20569;-77
2022/04/22 05:27:59;;;;;;;23.98;21.20;;;11.50;99.90;;;;;;5042960;28;20203;-79
2022/04/22 05:33:13;;;;;;;24.05;20.90;;;11.60;99.90;;;;;;5045244;28;20190;-77
2022/04/22 05:35:42;;;;;;;25.55;21.90;;;11.60;99.90;;;;;;5050240;28;20207;-76
2022/04/22 05:38:11;;;;;;;23.88;21.23;;;11.60;99.90;;;;;;5053537;28;20205;-77
2022/04/22 05:40:39;;;;;;;24.88;20.60;;;11.70;99.90;;;;;;5046795;28;20226;-78
2022/04/22 05:43:08;;;;;;;22.77;19.85;;;11.60;99.90;;;;;;5047480;28;20191;-79
2022/04/22 05:45:38;;;;;;;22.88;19.67;;;11.70;99.90;;;;;;5047365;28;20191;-78
2022/04/22 05:48:06;;;;;;;21.92;19.63;;;11.80;99.90;;;;;;5048461;28;20202;-79
2022/04/22 05:50:34;;;;;;;22.80;19.70;;;11.80;99.90;;;;;;5042759;28;20214;-77
2022/04/22 05:53:04;;;;;;;20.85;18.65;;;11.80;99.90;;;;;;5057319;28;20226;-77
2022/04/22 05:55:32;;;;;;;21.33;18.85;;;11.70;99.90;;;;;;5039735;28;20202;-77
2022/04/22 05:58:04;;;;;;;23.90;19.57;;;11.70;99.90;;;;;;5048042;28;20207;-77
2022/04/22 06:00:45;;;;;;;22.35;18.83;;;11.70;99.90;;;;;;5057411;28;20219;-77
2022/04/22 06:03:13;;;;;;;22.23;18.73;;;11.80;99.90;;;;;;5049751;28;20198;-77
2022/04/22 06:05:42;;;;;;;22.67;20.20;;;11.80;99.90;;;;;;5039096;28;20202;-77
2022/04/22 06:11:04;;;;;;;21.20;18.17;;;11.70;99.90;;;;;;5057305;28;20253;-77
2022/04/22 06:13:31;;;;;;;18.95;16.98;;;11.80;99.90;;;;;;5046699;28;20205;-77
2022/04/22 06:16:12;;;;;;;19.08;16.65;;;11.80;99.90;;;;;;5048056;28;20202;-77
2022/04/22 06:18:39;;;;;;;22.73;17.95;;;11.70;99.90;;;;;;5057659;28;20187;-77
2022/04/22 06:21:07;;;;;;;19.93;17.13;;;11.60;99.90;;;;;;5046949;28;20241;-76
2022/04/22 06:23:51;;;;;;;18.65;16.38;;;11.50;99.90;;;;;;5045314;28;20187;-77
2022/04/22 06:26:22;;;;;;;18.08;16.08;;;11.70;99.90;;;;;;5040966;28;20206;-77
2022/04/22 06:28:49;;;;;;;17.80;15.90;;;11.70;99.90;;;;;;5064245;28;20567;-78
2022/04/22 06:31:23;;;;;;;17.80;16.00;;;11.80;99.90;;;;;;5044921;28;20210;-77
2022/04/22 06:33:51;;;;;;;17.65;15.75;;;11.80;99.90;;;;;;5045150;28;20185;-77
2022/04/22 06:36:28;;;;;;;18.02;16.17;;;11.80;99.90;;;;;;5051110;28;20202;-78
2022/04/22 06:38:58;;;;;;;18.20;15.33;;;11.90;99.90;;;;;;5044881;28;20202;-77
2022/04/22 06:47:11;;;;;;;16.80;14.88;;;12.00;99.90;;;;;;5059220;28;20195;-76
2022/04/22 06:49:40;;;;;;;17.90;14.87;;;12.20;99.90;;;;;;5047657;28;20218;-76
2022/04/22 06:52:25;;;;;;;17.48;15.55;;;12.10;99.90;;;;;;5159988;27;20542;-77
2022/04/22 06:54:58;;;;;;;16.05;14.25;;;12.30;99.90;;;;;;5110033;28;20203;-76
2022/04/22 06:57:26;;;;;;;16.33;14.63;;;12.10;99.90;;;;;;5113626;27;20196;-77
2022/04/22 06:59:54;;;;;;;16.50;14.40;;;12.10;99.90;;;;;;5097217;28;20224;-77
2022/04/22 07:02:22;;;;;;;17.15;14.57;;;12.20;99.90;;;;;;5110010;28;20204;-76
2022/04/22 07:04:51;;;;;;;15.25;13.65;;;12.20;99.90;;;;;;5104267;28;20201;-77
2022/04/22 07:07:38;;;;;;;16.00;14.40;;;12.20;99.90;;;;;;5089829;28;20197;-76
2022/04/22 07:10:06;;;;;;;16.58;14.10;;;12.30;99.90;;;;;;5103755;28;20212;-77
2022/04/22 07:12:42;;;;;;;15.98;14.35;;;12.40;99.90;;;;;;5091916;28;20205;-77
2022/04/22 07:15:22;;;;;;;15.52;13.88;;;12.50;99.90;;;;;;5097646;28;20665;-77
2022/04/22 07:17:50;;;;;;;17.10;15.27;;;12.50;99.90;;;;;;5108555;28;20192;-76
2022/04/22 07:20:18;;;;;;;15.48;13.88;;;12.50;99.90;;;;;;5109058;28;20243;-76
2022/04/22 07:22:48;;;;;;;16.73;14.82;;;12.60;99.90;;;;;;5108405;28;20203;-76
2022/04/22 07:25:20;;;;;;;17.48;14.35;;;12.60;99.90;;;;;;5103313;28;20180;-77
2022/04/22 07:27:48;;;;;;;14.90;13.32;;;12.70;99.90;;;;;;5108562;28;20203;-77
2022/04/22 07:30:17;;;;;;;15.57;13.98;;;12.90;99.90;;;;;;5100674;28;20224;-77
2022/04/22 07:32:48;;;;;;;15.30;13.77;;;12.80;99.90;;;;;;5109137;28;20577;-77
2022/04/22 07:35:17;;;;;;;14.70;13.20;;;12.70;99.90;;;;;;5103636;28;20200;-77
2022/04/22 07:37:48;;;;;;;15.55;13.93;;;12.80;99.90;;;;;;5108473;28;20201;-77
2022/04/22 07:40:19;;;;;;;16.08;14.38;;;12.60;99.90;;;;;;5109152;28;20219;-77
2022/04/22 07:48:18;;;;;;;14.82;12.95;;;12.90;99.90;;;;;;5108084;28;20200;-76
2022/04/22 07:50:47;;;;;;;15.70;13.30;;;12.80;99.90;;;;;;5107840;28;20220;-77
2022/04/22 07:53:16;;;;;;;16.00;14.30;;;12.80;99.90;;;;;;5108971;28;20550;-76
2022/04/22 07:55:44;;;;;;;14.18;12.77;;;12.90;99.90;;;;;;5108805;28;20223;-76
2022/04/22 07:58:13;;;;;;;15.60;13.95;;;12.90;99.90;;;;;;5106147;28;20590;-76
2022/04/22 08:00:41;;;;;;;15.70;13.52;;;12.90;99.90;;;;;;5107769;28;20236;-76
2022/04/22 08:03:09;;;;;;;14.68;13.18;;;12.70;99.90;;;;;;5089404;28;20545;-77
2022/04/22 08:05:37;;;;;;;14.70;13.15;;;12.70;99.90;;;;;;5088060;28;20211;-76
2022/04/22 08:08:06;;;;;;;14.50;12.93;;;12.90;99.90;;;;;;5077050;28;20205;-76
2022/04/22 08:10:37;;;;;;;13.13;11.73;;;12.90;99.90;;;;;;5088804;28;20213;-76
2022/04/22 08:13:06;;;;;;;14.88;13.38;;;12.90;99.90;;;;;;5095440;28;20204;-77
2022/04/22 08:15:36;;;;;;;14.45;12.90;;;13.20;99.90;;;;;;5094458;28;20194;-77
2022/04/22 08:18:05;;;;;;;14.68;13.18;;;13.40;99.90;;;;;;5093439;28;20193;-77
2022/04/22 08:20:35;;;;;;;14.35;12.85;;;13.20;99.90;;;;;;5094235;28;20221;-76
2022/04/22 08:23:03;;;;;;;14.80;13.07;;;13.30;99.90;;;;;;5093881;28;20682;-77
2022/04/22 08:25:31;;;;;;;13.80;12.38;;;13.30;99.90;;;;;;5081781;28;20198;-77
2022/04/22 08:28:02;;;;;;;15.07;13.55;;;13.60;99.90;;;;;;5091751;28;20196;-78
2022/04/22 08:30:29;;;;;;;14.98;13.57;;;13.70;99.90;;;;;;5104699;28;20220;-77
2022/04/22 08:33:04;;;;;;;14.55;13.13;;;13.60;99.90;;;;;;5088835;28;20585;-76
2022/04/22 08:35:31;;;;;;;10.85;8.75;;;13.70;99.90;;;;;;5083304;28;20197;-76
2022/04/22 08:38:01;;;;;;;15.30;13.00;;;14.00;99.90;;;;;;5092025;28;20200;-76
2022/04/22 08:40:31;;;;;;;15.30;13.80;;;14.10;99.90;;;;;;5089642;28;20670;-79
2022/04/22 08:43:01;;;;;;;16.63;14.93;;;14.30;99.90;;;;;;5091047;28;20193;-76
2022/04/22 08:45:54;;;;;;;15.10;13.65;;;13.90;99.90;;;;;;5077531;28;20200;-75
2022/04/22 08:51:09;;;;;;;16.35;14.75;;;13.70;99.90;;;;;;5082992;28;20224;-77
2022/04/22 08:53:41;;;;;;;18.48;16.77;;;14.00;99.90;;;;;;5088315;28;20662;-76
2022/04/22 08:56:10;;;;;;;17.83;16.13;;;13.50;99.90;;;;;;5091192;28;20192;-76
2022/04/22 08:58:40;;;;;;;18.20;16.38;;;13.80;99.90;;;;;;5086487;28;20207;-76
2022/04/22 09:01:08;;;;;;;18.88;16.88;;;13.90;99.90;;;;;;5081884;28;20233;-76
2022/04/22 09:03:35;;;;;;;18.35;16.45;;;13.70;99.90;;;;;;5093346;28;20209;-76
2022/04/22 09:06:04;;;;;;;18.35;16.58;;;13.70;99.90;;;;;;5077650;28;20562;-76
2022/04/22 09:08:32;;;;;;;19.42;17.63;;;13.70;99.90;;;;;;5093248;28;20208;-76
2022/04/22 09:11:04;;;;;;;18.27;16.50;;;13.70;99.90;;;;;;5087125;28;20217;-76
2022/04/22 09:13:32;;;;;;;18.33;16.52;;;13.70;99.90;;;;;;5097651;28;20209;-76
2022/04/22 09:16:01;;;;;;;18.30;16.48;;;13.80;99.90;;;;;;5089339;28;20201;-76
2022/04/22 09:18:30;;;;;;;17.95;16.25;;;14.00;99.90;;;;;;5088998;28;20197;-76
2022/04/22 09:21:02;;;;;;;17.50;15.77;;;14.00;99.90;;;;;;5080507;28;20587;-76
2022/04/22 09:23:36;;;;;;;17.30;15.60;;;13.80;99.90;;;;;;5085503;28;20197;-76
2022/04/22 09:26:05;;;;;;;16.05;14.43;;;13.80;99.90;;;;;;5086138;28;20206;-76
2022/04/22 09:29:06;;;;;;;14.15;12.75;;;13.90;99.90;;;;;;5093197;28;20215;-76
2022/04/22 09:31:47;;;;;;;15.07;12.88;;;14.10;99.90;;;;;;5084491;28;20220;-76
2022/04/22 09:34:15;;;;;;;14.80;12.73;;;14.00;99.90;;;;;;5093489;28;20220;-76
2022/04/22 09:44:59;;;;;;;12.90;11.70;;;14.10;99.90;;;;;;5082815;28;20190;-77
2022/04/22 09:47:29;;;;;;;11.32;10.13;;;14.30;99.90;;;;;;5087018;28;20674;-77
2022/04/22 09:50:01;;;;;;;10.55;9.45;;;14.10;99.90;;;;;;5091908;28;20260;-77
2022/04/22 09:52:30;;;;;;;10.35;8.48;;;14.10;99.90;;;;;;5091264;28;20694;-76
2022/04/22 09:54:59;;;;;;;11.27;9.65;;;14.70;99.90;;;;;;5091192;28;20564;-76
2022/04/22 09:57:26;;;;;;;10.48;9.38;;;14.70;99.90;;;;;;5084216;28;20197;-78
2022/04/22 09:59:54;;;;;;;10.75;9.75;;;14.80;99.90;;;;;;5092159;28;20205;-78
2022/04/22 10:02:25;;;;;;;9.95;8.95;;;14.90;99.90;;;;;;5090950;28;20216;-77
2022/04/22 10:04:55;;;;;;;11.90;9.85;;;14.90;99.90;;;;;;5090761;28;20192;-77
2022/04/22 10:07:27;;;;;;;11.85;9.90;;;14.60;99.90;;;;;;5085184;28;20204;-77
2022/04/22 10:09:59;;;;;;;12.57;11.27;;;14.70;99.90;;;;;;5093799;28;20248;-78
2022/04/22 10:12:28;;;;;;;11.85;10.68;;;14.60;99.90;;;;;;5093687;28;20216;-77
2022/04/22 10:14:59;;;;;;;12.23;10.95;;;14.40;99.90;;;;;;5090737;28;20201;-78
2022/04/22 10:17:27;;;;;;;11.32;10.18;;;14.40;99.90;;;;;;5088566;28;20201;-78
2022/04/22 10:19:56;;;;;;;12.57;10.57;;;14.40;99.90;;;;;;5090331;28;20226;-81
2022/04/22 10:22:26;;;;;;;11.68;10.55;;;14.50;99.90;;;;;;5081138;28;20197;-78
2022/04/22 10:24:54;;;;;;;11.30;10.20;;;14.60;99.90;;;;;;5082781;28;20193;-83
2022/04/22 10:27:22;;;;;;;11.70;10.50;;;14.60;99.90;;;;;;5085832;28;20208;-78
2022/04/22 10:29:50;;;;;;;13.40;12.05;;;14.70;99.90;;;;;;5078113;28;20682;-77
2022/04/22 10:32:18;;;;;;;12.73;11.45;;;14.70;99.90;;;;;;5081948;28;20221;-78
2022/04/22 10:34:46;;;;;;;12.05;10.88;;;14.80;99.90;;;;;;5077956;28;20194;-77
2022/04/22 10:37:20;;;;;;;12.52;11.13;;;14.90;99.90;;;;;;5083893;28;20268;-78
2022/04/22 10:39:53;;;;;;;13.65;11.57;;;14.70;99.20;;;;;;5083731;28;20230;-78
2022/04/22 10:42:31;;;;;;;11.50;10.43;;;14.80;99.90;;;;;;5081999;28;20193;-77
2022/04/22 10:47:53;;;;;;;13.25;11.48;;;14.80;99.90;;;;;;5091059;28;20669;-78
2022/04/22 10:50:29;;;;;;;14.15;12.80;;;14.70;99.90;;;;;;5098576;28;20222;-78
2022/04/22 10:53:02;;;;;;;13.45;12.20;;;14.70;99.90;;;;;;5092864;28;20212;-77
2022/04/22 10:55:38;;;;;;;13.55;12.13;;;14.50;99.90;;;;;;5095100;28;20200;-77
2022/04/22 10:58:27;;;;;;;14.20;12.70;;;14.10;99.90;;;;;;5089154;28;20184;-77
2022/04/22 11:00:57;;;;;;;14.30;12.80;;;14.10;99.90;;;;;;5096535;28;20232;-77
2022/04/22 11:03:27;;;;;;;13.93;12.50;;;14.30;99.90;;;;;;5082443;28;20189;-78
2022/04/22 11:05:59;;;;;;;13.73;12.43;;;14.30;99.90;;;;;;5094496;28;20200;-78
2022/04/22 11:08:30;;;;;;;13.90;12.50;;;14.40;99.90;;;;;;5091460;28;20671;-78
2022/04/22 11:11:10;;;;;;;14.27;12.77;;;14.40;99.90;;;;;;5090202;28;20224;-78
2022/04/22 11:13:52;;;;;;;14.30;12.70;;;14.40;99.90;;;;;;5082702;28;20209;-78
2022/04/22 11:16:29;;;;;;;15.02;13.07;;;14.30;99.90;;;;;;5083184;28;20562;-78
2022/04/22 11:19:29;;;;;;;13.70;12.27;;;14.40;99.90;;;;;;5091346;28;20201;-78
2022/04/22 11:22:07;;;;;;;14.82;13.20;;;14.50;99.90;;;;;;4999422;28;20778;-77
2022/04/22 11:24:40;;;;;;;15.00;13.38;;;14.40;99.90;;;;;;4994291;28;20587;-79
2022/04/22 11:27:13;;;;;;;16.20;14.20;;;14.50;99.90;;;;;;5046233;28;20196;-78
2022/04/22 11:29:43;;;;;;;14.95;13.48;;;14.50;99.90;;;;;;5084456;28;20213;-78
2022/04/22 11:32:20;;;;;;;18.50;14.70;;;14.40;99.90;;;;;;5092698;28;20193;-78
2022/04/22 11:35:18;;;;;;;14.80;13.10;;;14.40;99.90;;;;;;5091848;28;20197;-77
2022/04/22 11:37:46;;;;;;;15.93;14.20;;;14.50;99.90;;;;;;5086032;28;20194;-77
2022/04/22 11:40:20;;;;;;;14.32;12.82;;;14.80;99.90;;;;;;5090148;28;20224;-78
2022/04/22 11:42:49;;;;;;;15.07;12.32;;;15.10;99.90;;;;;;5089528;28;20193;-80
2022/04/22 11:45:17;;;;;;;14.48;13.02;;;14.90;99.90;;;;;;5085839;28;20208;-78
2022/04/22 11:47:44;;;;;;;14.90;12.52;;;14.80;99.90;;;;;;5082705;28;20562;-78
2022/04/22 11:50:19;;;;;;;15.63;12.82;;;14.80;99.90;;;;;;5089851;28;20227;-78
2022/04/22 11:52:52;;;;;;;15.10;13.60;;;14.90;99.90;;;;;;5092365;28;20224;-78
2022/04/22 11:55:22;;;;;;;14.48;13.07;;;14.80;99.90;;;;;;5094795;28;20689;-78
2022/04/22 11:57:52;;;;;;;15.77;14.15;;;14.80;99.90;;;;;;5090717;28;20193;-78
2022/04/22 12:06:29;;;;;;;18.90;16.02;;;14.60;99.90;;;;;;5101658;28;20188;-77
2022/04/22 12:08:57;;;;;;;17.92;15.98;;;14.60;99.90;;;;;;5095554;28;20196;-77
2022/04/22 12:11:28;;;;;;;17.45;15.55;;;14.80;99.90;;;;;;5116602;27;20576;-78
2022/04/22 12:13:56;;;;;;;15.95;14.25;;;14.90;99.90;;;;;;5094423;28;20687;-78
2022/04/22 12:16:25;;;;;;;17.98;14.30;;;15.00;99.90;;;;;;5080140;28;20208;-79
2022/04/22 12:18:54;;;;;;;14.30;12.85;;;15.20;99.90;;;;;;5092300;28;20201;-78
2022/04/22 12:21:22;;;;;;;13.85;12.45;;;15.30;99.90;;;;;;5094299;28;20796;-78
2022/04/22 12:23:51;;;;;;;13.90;12.50;;;15.30;99.90;;;;;;5088089;28;20197;-78
2022/04/22 12:26:20;;;;;;;14.80;13.25;;;15.20;99.90;;;;;;5095276;28;20204;-78
2022/04/22 12:29:11;;;;;;;14.00;12.60;;;15.30;99.90;;;;;;5093958;28;20205;-78
2022/04/22 12:31:41;;;;;;;14.82;12.02;;;15.10;99.90;;;;;;5087429;28;20190;-77
2022/04/22 12:34:10;;;;;;;13.38;12.05;;;15.10;99.90;;;;;;5085296;28;20240;-78
2022/04/22 12:36:38;;;;;;;14.77;12.38;;;15.30;99.90;;;;;;5093346;28;20565;-78
2022/04/22 12:39:08;;;;;;;13.15;11.82;;;15.30;99.90;;;;;;5094407;28;20203;-79
2022/04/22 12:41:49;;;;;;;13.60;12.23;;;15.30;99.90;;;;;;5086614;28;20213;-78
2022/04/22 12:44:18;;;;;;;12.98;11.60;;;15.50;99.90;;;;;;5093788;28;20204;-77
2022/04/22 12:52:23;;;;;;;12.55;10.68;;;15.50;99.60;;;;;;5084844;28;20212;-77
2022/04/22 12:54:51;;;;;;;13.30;10.95;;;15.30;99.70;;;;;;5092775;28;20655;-78
2022/04/22 12:57:28;;;;;;;14.27;11.07;;;15.20;99.90;;;;;;5089202;28;20209;-78
2022/04/22 12:59:58;;;;;;;13.77;12.32;;;15.40;99.60;;;;;;5082443;28;20212;-78
2022/04/22 13:02:30;;;;;;;14.43;12.93;;;15.20;99.50;;;;;;5098617;28;20202;-77
2022/04/22 13:04:59;;;;;;;13.65;12.25;;;15.00;99.90;;;;;;5097273;28;20204;-78
2022/04/22 13:07:40;;;;;;;13.68;12.27;;;15.00;99.90;;;;;;5101238;28;20192;-78
2022/04/22 13:10:09;;;;;;;14.48;12.88;;;15.20;99.90;;;;;;5092046;28;20227;-77
2022/04/22 13:12:41;;;;;;;14.13;12.63;;;15.00;99.90;;;;;;5097558;28;20577;-78
2022/04/22 13:15:19;;;;;;;13.38;12.07;;;14.90;99.90;;;;;;5099648;28;20221;-77
2022/04/22 13:17:48;;;;;;;12.80;11.38;;;14.60;99.90;;;;;;5083874;28;20192;-77
2022/04/22 13:20:18;;;;;;;12.25;10.95;;;14.60;99.90;;;;;;5085301;28;20564;-77
2022/04/22 13:22:46;;;;;;;11.90;10.50;;;14.70;99.90;;;;;;5097641;28;20207;-77
2022/04/22 13:25:15;;;;;;;12.70;11.02;;;14.60;99.90;;;;;;5087541;28;20200;-77
2022/04/22 13:27:43;;;;;;;11.23;10.10;;;14.70;99.90;;;;;;5094107;28;20193;-77
2022/04/22 13:30:11;;;;;;;12.07;10.88;;;15.00;99.90;;;;;;5099025;28;20227;-78
2022/04/22 13:32:40;;;;;;;11.45;10.35;;;15.20;99.90;;;;;;5095969;28;20200;-77
2022/04/22 13:35:10;;;;;;;12.23;10.88;;;15.00;99.90;;;;;;5094297;28;20209;-77
2022/04/22 13:37:38;;;;;;;11.32;10.25;;;15.60;99.70;;;;;;5097870;28;20275;-78
2022/04/22 13:40:06;;;;;;;11.70;10.43;;;15.60;99.00;;;;;;5097921;28;20220;-78
2022/04/22 13:42:33;;;;;;;11.30;10.20;;;15.80;99.40;;;;;;5080298;28;20209;-77
2022/04/22 13:53:55;;;;;;;11.73;10.55;;;16.60;96.20;;;;;;4996098;28;20211;-77
2022/04/22 13:56:23;;;;;;;11.32;10.20;;;16.30;95.50;;;;;;5050856;28;20198;-77
2022/04/22 13:58:50;;;;;;;12.90;11.57;;;16.40;96.10;;;;;;5078498;28;20219;-76
2022/04/22 14:01:17;;;;;;;11.80;10.60;;;16.80;94.50;;;;;;5090735;28;20228;-77
2022/04/22 14:03:46;;;;;;;13.23;10.50;;;17.50;93.90;;;;;;5085686;28;20194;-76
2022/04/22 14:06:13;;;;;;;11.85;10.15;;;17.60;94.10;;;;;;5091767;28;20192;-76